createdAt,value
2023-01-19T20:36:56.582Z,0.00
2023-01-19T20:37:06.250Z,0.00
2023-01-19T20:37:16.307Z,0.00
2023-01-19T20:37:26.477Z,0.00
2023-01-19T20:37:36.471Z,0.00
2023-01-19T20:37:46.234Z,4.00
2023-01-19T20:37:56.470Z,0.00
2023-01-19T20:38:06.474Z,0.00
2023-01-19T20:38:16.480Z,0.00
2023-01-19T20:38:26.469Z,0.00
2023-01-19T20:38:36.476Z,0.00
2023-01-19T20:38:46.523Z,0.00
2023-01-19T20:38:56.503Z,0.00
2023-01-19T20:39:06.593Z,0.00
2023-01-19T20:39:16.252Z,0.00
2023-01-19T20:39:26.278Z,0.00
2023-01-19T20:39:36.490Z,0.00
2023-01-19T20:39:46.241Z,0.00
2023-01-19T20:39:56.485Z,4.00
2023-01-19T20:40:06.254Z,12.00
2023-01-19T20:40:16.492Z,8.00
2023-01-19T20:40:26.510Z,12.00
2023-01-19T20:40:36.497Z,12.00
2023-01-19T20:40:46.515Z,144.00
2023-01-19T20:40:56.298Z,56.00
2023-01-19T20:41:06.499Z,404.00
2023-01-19T20:41:16.499Z,372.00
2023-01-19T20:41:26.493Z,4.00
2023-01-19T20:41:36.265Z,424.00
2023-01-19T20:41:46.496Z,424.00
2023-01-19T20:41:56.498Z,428.00
2023-01-19T20:42:06.264Z,428.00
2023-01-19T20:42:16.524Z,428.00
2023-01-19T20:42:26.501Z,428.00
2023-01-19T20:42:36.508Z,428.00
2023-01-19T20:42:46.508Z,428.00
2023-01-19T20:42:56.505Z,428.00
2023-01-19T20:43:06.511Z,428.00
2023-01-19T20:43:16.501Z,428.00
2023-01-19T20:43:26.277Z,428.00
2023-01-19T20:43:36.526Z,428.00
2023-01-19T20:43:46.270Z,428.00
2023-01-19T20:43:56.346Z,428.00
2023-01-19T20:44:06.523Z,424.00
2023-01-19T20:44:16.555Z,428.00
2023-01-19T20:44:26.523Z,428.00
2023-01-19T20:44:36.528Z,428.00
2023-01-19T20:44:46.278Z,428.00
2023-01-19T20:44:56.517Z,428.00
2023-01-19T20:45:06.296Z,428.00
2023-01-19T20:45:16.283Z,428.00
2023-01-19T20:45:26.623Z,428.00
2023-01-19T20:45:36.554Z,428.00
2023-01-19T20:45:46.620Z,428.00
2023-01-19T20:45:56.425Z,428.00
2023-01-19T20:46:06.535Z,428.00
2023-01-19T20:46:16.663Z,428.00
2023-01-19T20:46:26.531Z,428.00
2023-01-19T20:46:36.537Z,428.00
2023-01-19T20:46:46.744Z,52.00
2023-01-19T20:46:56.285Z,0.00
2023-01-19T20:47:06.769Z,384.00
2023-01-19T20:47:16.379Z,384.00
2023-01-19T20:47:26.536Z,212.00
2023-01-19T20:47:36.578Z,424.00
2023-01-19T20:47:46.530Z,424.00
2023-01-19T20:47:56.584Z,396.00
2023-01-19T20:48:06.591Z,396.00
2023-01-19T20:48:16.355Z,396.00
2023-01-19T20:48:26.959Z,396.00
2023-01-19T20:50:26.360Z,32.00
2023-01-19T20:50:43.276Z,28.00
2023-01-19T20:51:02.047Z,36.00
2023-01-19T20:51:12.239Z,4.00
2023-01-19T20:51:28.863Z,8.00
2023-01-19T20:51:38.667Z,8.00
2023-01-19T20:51:48.709Z,8.00
2023-01-19T20:51:58.663Z,8.00
2023-01-19T20:52:08.672Z,12.00
2023-01-19T20:52:18.772Z,12.00
2023-01-19T20:52:28.680Z,12.00
2023-01-19T20:52:38.665Z,8.00
2023-01-19T20:52:48.668Z,12.00
2023-01-19T20:52:58.672Z,8.00
2023-01-19T20:53:08.676Z,12.00
2023-01-19T20:53:18.860Z,12.00
2023-01-19T20:53:28.677Z,8.00
2023-01-19T20:53:38.604Z,12.00
2023-01-19T20:53:48.746Z,8.00
2023-01-19T20:53:58.684Z,8.00
2023-01-19T20:54:09.503Z,8.00
2023-01-19T20:54:18.683Z,8.00
2023-01-19T20:54:28.684Z,8.00
2023-01-19T20:54:38.684Z,8.00
2023-01-19T20:54:48.683Z,8.00
2023-01-19T20:54:58.679Z,8.00
2023-01-19T20:55:08.690Z,8.00
2023-01-19T20:55:18.688Z,12.00
2023-01-19T20:55:28.684Z,16.00
2023-01-19T20:55:38.691Z,16.00
2023-01-19T20:55:48.447Z,16.00
2023-01-19T20:55:58.696Z,12.00
2023-01-19T20:56:14.792Z,4.00
2023-01-19T20:56:24.989Z,20.00
2023-01-19T20:56:34.767Z,8.00
2023-01-19T20:56:48.133Z,4.00
2023-01-19T20:56:58.131Z,12.00
2023-01-19T20:57:08.128Z,84.00
2023-01-19T20:57:17.885Z,32.00
2023-01-19T20:57:27.885Z,36.00
2023-01-19T20:57:38.167Z,20.00
2023-01-19T20:57:48.127Z,36.00
2023-01-19T20:57:57.892Z,36.00
2023-01-19T20:58:08.123Z,32.00
2023-01-19T20:58:17.893Z,36.00
2023-01-19T20:58:28.153Z,40.00
2023-01-19T20:58:38.151Z,40.00
2023-01-19T20:58:48.137Z,52.00
2023-01-19T20:58:58.134Z,36.00
2023-01-19T20:59:08.134Z,44.00
2023-01-19T20:59:18.172Z,44.00
2023-01-19T20:59:28.200Z,28.00
2023-01-19T20:59:38.205Z,28.00
2023-01-19T20:59:48.209Z,36.00
2023-01-19T20:59:58.208Z,32.00
2023-01-19T21:00:08.198Z,36.00
2023-01-19T21:00:17.977Z,36.00
2023-01-19T21:00:28.215Z,36.00
2023-01-19T21:00:38.240Z,36.00
2023-01-19T21:00:48.251Z,36.00
2023-01-19T21:00:58.093Z,36.00
2023-01-19T21:01:08.494Z,44.00
2023-01-19T21:01:18.101Z,40.00
2023-01-19T21:01:28.345Z,20.00
2023-01-19T21:01:38.364Z,40.00
2023-01-19T21:01:48.442Z,36.00
2023-01-19T21:01:58.322Z,36.00
2023-01-19T21:02:08.209Z,32.00
2023-01-19T21:02:18.109Z,36.00
2023-01-19T21:02:28.643Z,40.00
2023-01-19T21:02:38.141Z,36.00
2023-01-19T21:02:48.103Z,40.00
2023-01-19T21:02:58.311Z,32.00
2023-01-19T21:03:08.078Z,32.00
2023-01-19T21:03:18.294Z,36.00
2023-01-19T21:03:28.301Z,32.00
2023-01-19T21:03:38.306Z,32.00
2023-01-19T21:03:48.308Z,32.00
2023-01-19T21:03:58.315Z,32.00
2023-01-19T21:04:08.309Z,36.00
2023-01-19T21:04:18.329Z,32.00
2023-01-19T21:04:28.316Z,32.00
2023-01-19T21:04:38.317Z,32.00
2023-01-19T21:04:48.322Z,36.00
2023-01-19T21:04:58.306Z,32.00
2023-01-19T21:05:08.308Z,40.00
2023-01-19T21:05:18.327Z,36.00
2023-01-19T21:05:28.315Z,36.00
2023-01-19T21:05:38.324Z,36.00
2023-01-19T21:05:48.326Z,36.00
2023-01-19T21:06:04.453Z,36.00
2023-01-19T21:06:41.408Z,44.00
2023-01-19T21:07:02.466Z,28.00
2023-01-19T21:07:26.308Z,44.00
2023-01-19T21:07:36.391Z,44.00
2023-01-19T21:07:46.383Z,44.00
2023-01-19T21:07:56.389Z,44.00
2023-01-19T21:08:06.402Z,56.00
2023-01-19T21:08:16.399Z,72.00
2023-01-19T21:08:26.381Z,68.00
2023-01-19T21:08:36.154Z,64.00
2023-01-19T21:08:46.399Z,64.00
2023-01-19T21:08:56.390Z,64.00
2023-01-19T21:09:06.185Z,64.00
2023-01-19T21:09:16.406Z,64.00
2023-01-19T21:09:26.396Z,64.00
2023-01-19T21:09:36.394Z,68.00
2023-01-19T21:09:46.167Z,68.00
2023-01-19T21:09:56.392Z,68.00
2023-01-19T21:10:06.409Z,68.00
2023-01-19T21:10:16.398Z,64.00
2023-01-19T21:10:26.413Z,32.00
2023-01-19T21:10:36.402Z,40.00
2023-01-19T21:10:46.422Z,40.00
2023-01-19T21:10:56.397Z,16.00
2023-01-19T21:11:06.418Z,12.00
2023-01-19T21:11:16.409Z,12.00
2023-01-19T21:11:26.405Z,12.00
2023-01-19T21:11:36.422Z,12.00
2023-01-19T21:11:46.423Z,12.00
2023-01-19T21:11:57.536Z,12.00
2023-01-19T21:12:06.412Z,12.00
2023-01-19T21:12:16.187Z,12.00
2023-01-19T21:12:26.413Z,12.00
2023-01-19T21:12:36.417Z,12.00
2023-01-19T21:12:46.411Z,12.00
2023-01-19T21:12:56.415Z,12.00
2023-01-19T21:13:06.420Z,12.00
2023-01-19T21:13:16.430Z,12.00
2023-01-19T21:13:26.419Z,12.00
2023-01-19T21:13:36.187Z,12.00
2023-01-19T21:13:46.445Z,12.00
2023-01-19T21:13:56.558Z,12.00
2023-01-19T21:14:06.425Z,12.00
2023-01-19T21:14:16.195Z,12.00
2023-01-19T21:14:26.436Z,12.00
2023-01-19T21:14:36.437Z,12.00
2023-01-19T21:14:46.429Z,12.00
2023-01-19T21:14:56.432Z,12.00
2023-01-19T21:15:06.222Z,12.00
2023-01-19T21:15:16.444Z,12.00
2023-01-19T21:15:26.435Z,12.00
2023-01-19T21:15:36.451Z,12.00
2023-01-19T21:15:46.433Z,12.00
2023-01-19T21:15:56.434Z,12.00
2023-01-19T21:16:06.470Z,12.00
2023-01-19T21:16:16.475Z,12.00
2023-01-19T21:16:26.491Z,12.00
2023-01-19T21:16:36.489Z,12.00
2023-01-19T21:16:46.506Z,12.00
2023-01-19T21:16:56.443Z,12.00
2023-01-19T21:17:06.463Z,12.00
2023-01-19T21:17:16.205Z,12.00
2023-01-19T21:17:26.448Z,12.00
2023-01-19T21:17:36.556Z,12.00
2023-01-19T21:17:46.226Z,12.00
2023-01-19T21:17:56.447Z,12.00
2023-01-19T21:18:06.455Z,12.00
2023-01-19T21:18:16.456Z,12.00
2023-01-19T21:18:26.456Z,12.00
2023-01-19T21:18:36.216Z,12.00
2023-01-19T21:18:46.217Z,12.00
2023-01-19T21:18:56.460Z,12.00
2023-01-19T21:19:06.472Z,12.00
2023-01-19T21:19:16.457Z,12.00
2023-01-19T21:19:26.444Z,12.00
2023-01-19T21:19:36.222Z,12.00
2023-01-19T21:19:46.236Z,12.00
2023-01-19T21:19:56.460Z,12.00
2023-01-19T21:20:06.462Z,12.00
2023-01-19T21:20:16.466Z,12.00
2023-01-19T21:20:26.454Z,12.00
2023-01-19T21:20:36.462Z,12.00
2023-01-19T21:20:46.464Z,12.00
2023-01-19T21:20:56.477Z,12.00
2023-01-19T21:21:08.004Z,12.00
2023-01-19T21:21:29.440Z,12.00
2023-01-19T21:21:31.484Z,12.00
2023-01-19T21:21:36.465Z,12.00
2023-01-19T21:21:46.479Z,12.00
2023-01-19T21:21:56.469Z,12.00
2023-01-19T21:22:06.473Z,12.00
2023-01-19T21:22:16.256Z,12.00
2023-01-19T21:22:29.792Z,12.00
2023-01-19T21:32:27.585Z,0.00
2023-01-19T21:42:36.371Z,0.00
2023-01-19T21:52:46.231Z,0.00
2023-01-19T22:03:03.725Z,0.00
2023-01-19T22:13:10.548Z,0.00
2023-01-19T22:23:20.024Z,0.00
2023-01-19T22:33:29.775Z,0.00
2023-01-19T22:43:39.535Z,0.00
2023-01-19T22:53:49.375Z,0.00
2023-01-19T23:03:57.547Z,0.00
2023-01-19T23:14:07.791Z,0.00
2023-01-19T23:24:17.759Z,0.00
2023-01-19T23:34:27.129Z,0.00
2023-01-19T23:44:36.235Z,0.00
2023-01-19T23:54:45.437Z,0.00
